D57

Glen Ullin Regional Airport

Glen Ullin, North Dakota, USA
METAR KD57 161215Z AUTO 26006KT 10SM CLR M05/M08 A3017 RMK AO2 PWINO
Observed Flight Rules
Dec-16 @ 12:15 UTC (29 minutes ago) Visual Flight Rules
Wind Visibility Clouds
260° at 6 knots 10 miles
  • Clear skies
Temperatures Readings
Current -5°C / 23°F
Dewpoint -8°C / 18°F
Humidity 80%
Altimeter 30.17" Hg
Pressure 1022 hPa
Elevation 637
METAR KD57 161215Z AUTO 26006KT 10SM CLR M05/M08 A3017 RMK AO2 PWINO
Observed Flight Rules
Dec-16 @ 12:15 UTC
(29 minutes ago)
VFR
Wind Visibility
260° at 6 knots 10 miles
Clouds
  • Clear skies
Temperature Dewpoint
-5°C / 23°F -8°C / 18°F
Humidity Altimeter Pressure
80% 30.17" Hg 1022 hPa